Time;durP1;ratioP1;P1;durP2;ratioP2;P2;SDS_P1;SDS_P2;PMS_P1;PMS_P2;Temp;Humidity;BMP_temperature;BMP_pressure;BME280_temperature;BME280_humidity;BME280_pressure;Samples;Min_cycle;Max_cycle;Signal;HPM_P1;HPM_P2
2022/12/27 00:02:02;;;;;;;;;;;15.80;99.90;;;;;;5037907;28;19917;-82
2022/12/27 00:04:28;;;;;;;;;;;15.80;99.90;;;;;;5036357;28;19909;-81
2022/12/27 00:06:54;;;;;;;;;;;15.80;99.90;;;;;;5038318;28;20266;-81
2022/12/27 00:09:20;;;;;;;;;;;15.80;99.90;;;;;;5037399;28;20263;-81
2022/12/27 00:11:45;;;;;;;;;;;15.80;99.90;;;;;;5038488;28;19945;-81
2022/12/27 00:14:11;;;;;;;;;;;15.80;99.90;;;;;;5038041;28;19929;-81
2022/12/27 00:16:37;;;;;;;;;;;15.80;99.90;;;;;;5037317;28;19924;-81
2022/12/27 00:19:03;;;;;;;;;;;15.80;99.90;;;;;;5046432;28;19927;-82
2022/12/27 00:21:30;;;;;;;;;;;15.80;99.90;;;;;;5057931;28;19908;-82
2022/12/27 00:23:56;;;;;;;;;;;15.80;99.90;;;;;;5073555;28;19917;-82
2022/12/27 00:26:23;;;;;;;;;;;15.70;99.90;;;;;;5057827;28;20208;-81
2022/12/27 00:28:49;;;;;;;;;;;15.70;99.90;;;;;;5057979;28;19913;-81
2022/12/27 00:31:15;;;;;;;;;;;15.70;99.90;;;;;;5057846;28;19962;-81
2022/12/27 00:33:42;;;;;;;;;;;15.70;99.90;;;;;;5057068;28;20208;-81
2022/12/27 00:36:11;;;;;;;;;;;15.70;99.90;;;;;;5056028;28;19962;-81
2022/12/27 00:38:37;;;;;;;;;;;15.70;99.90;;;;;;5057196;28;19913;-81
2022/12/27 00:41:03;;;;;;;;;;;15.70;99.90;;;;;;5057382;28;19962;-81
2022/12/27 00:43:29;;;;;;;;;;;15.70;99.90;;;;;;5057220;28;19908;-81
2022/12/27 00:45:55;;;;;;;;;;;15.70;99.90;;;;;;5057424;28;20322;-83
2022/12/27 00:48:20;;;;;;;;;;;15.70;99.90;;;;;;5056795;28;20254;-83
2022/12/27 00:50:46;;;;;;;;;;;15.70;99.90;;;;;;5057390;28;20243;-82
2022/12/27 00:53:12;;;;;;;;;;;15.70;99.90;;;;;;5056905;28;20000;-82
2022/12/27 00:55:41;;;;;;;;;;;15.70;99.90;;;;;;5057091;28;20235;-83
2022/12/27 00:58:06;;;;;;;;;;;15.70;99.90;;;;;;5056647;28;19947;-83
2022/12/27 01:00:32;;;;;;;;;;;15.70;99.90;;;;;;5056972;28;19947;-82
2022/12/27 01:02:58;;;;;;;;;;;15.70;99.90;;;;;;5088961;28;19909;-83
2022/12/27 01:05:24;;;;;;;;;;;15.70;99.90;;;;;;5056308;28;19919;-82
2022/12/27 01:07:50;;;;;;;;;;;15.70;99.90;;;;;;5055635;28;19917;-82
2022/12/27 01:10:15;;;;;;;;;;;15.70;99.90;;;;;;5056366;28;19919;-82
2022/12/27 01:12:41;;;;;;;;;;;15.70;99.90;;;;;;5056704;28;19919;-83
2022/12/27 01:15:08;;;;;;;;;;;15.60;99.90;;;;;;5056046;28;19921;-82
2022/12/27 01:17:34;;;;;;;;;;;15.60;99.90;;;;;;5056325;28;20314;-82
2022/12/27 01:19:59;;;;;;;;;;;15.60;99.90;;;;;;5056118;28;19908;-82
2022/12/27 01:22:25;;;;;;;;;;;15.60;99.90;;;;;;5056493;28;19912;-81
2022/12/27 01:24:51;;;;;;;;;;;15.60;99.90;;;;;;5044413;28;19917;-82
2022/12/27 01:27:17;;;;;;;;;;;15.60;99.90;;;;;;5036582;28;20011;-81
2022/12/27 01:29:44;;;;;;;;;;;15.60;99.90;;;;;;5056254;28;20364;-82
2022/12/27 01:32:10;;;;;;;;;;;15.60;99.90;;;;;;5055922;28;20003;-82
2022/12/27 01:34:36;;;;;;;;;;;15.60;99.90;;;;;;5055967;28;19916;-82
2022/12/27 01:37:01;;;;;;;;;;;15.60;99.90;;;;;;5056433;28;20226;-82
2022/12/27 01:39:27;;;;;;;;;;;15.60;99.90;;;;;;5056121;28;19916;-82
2022/12/27 01:44:38;;;;;;;;;;;15.60;99.90;;;;;;5056194;28;19919;-82
2022/12/27 01:47:24;;;;;;;;;;;15.60;99.90;;;;;;5055944;28;19915;-83
2022/12/27 01:49:50;;;;;;;;;;;15.60;99.90;;;;;;5055494;28;20322;-83
2022/12/27 01:52:15;;;;;;;;;;;15.60;99.90;;;;;;5056043;28;19995;-83
2022/12/27 01:54:42;;;;;;;;;;;15.60;99.90;;;;;;5056173;28;20373;-81
2022/12/27 01:57:08;;;;;;;;;;;15.60;99.90;;;;;;5056624;28;19909;-81
2022/12/27 01:59:34;;;;;;;;;;;15.60;99.90;;;;;;5056514;28;19920;-81
2022/12/27 02:02:00;;;;;;;;;;;15.60;99.90;;;;;;5056290;28;19915;-81
2022/12/27 02:04:28;;;;;;;;;;;15.60;99.90;;;;;;5056078;28;19920;-81
2022/12/27 02:06:54;;;;;;;;;;;15.60;99.90;;;;;;5055981;28;20369;-83
2022/12/27 02:09:26;;;;;;;;;;;15.60;99.90;;;;;;5055656;28;19912;-82
2022/12/27 02:11:55;;;;;;;;;;;15.60;99.90;;;;;;5071955;28;19909;-83
2022/12/27 02:14:27;;;;;;;;;;;15.60;99.90;;;;;;5055798;28;19974;-82
2022/12/27 02:16:53;;;;;;;;;;;15.60;99.90;;;;;;5056246;28;20215;-83
2022/12/27 02:19:35;;;;;;;;;;;15.60;99.90;;;;;;5055280;28;19921;-83
2022/12/27 02:22:09;;;;;;;;;;;15.60;99.90;;;;;;5055919;28;19913;-82
2022/12/27 02:24:53;;;;;;;;;;;15.60;99.90;;;;;;5071460;28;19962;-81
2022/12/27 02:27:40;;;;;;;;;;;15.60;99.90;;;;;;5057392;28;19920;-81
2022/12/27 02:30:06;;;;;;;;;;;15.60;99.90;;;;;;5058954;28;19970;-81
2022/12/27 02:32:36;;;;;;;;;;;15.60;99.90;;;;;;5059329;28;19913;-81
2022/12/27 02:35:02;;;;;;;;;;;15.60;99.90;;;;;;5059050;28;19958;-82
2022/12/27 02:37:29;;;;;;;;;;;15.50;99.90;;;;;;5059713;28;19908;-81
2022/12/27 02:53:02;;;;;;;;;;;15.60;99.90;;;;;;5059790;28;19909;-81
2022/12/27 02:54:30;;;;;;;;;;;15.60;99.90;;;;;;5059574;28;19997;-83
2022/12/27 02:57:18;;;;;;;;;;;15.50;99.90;;;;;;5037525;28;20332;-82
2022/12/27 03:06:38;;;;;;;;;;;15.50;99.90;;;;;;5058705;28;20003;-82
2022/12/27 03:08:59;;;;;;;;;;;15.50;99.90;;;;;;5058925;28;19909;-82
2022/12/27 03:17:10;;;;;;;;;;;15.50;99.90;;;;;;5058635;28;19909;-82
2022/12/27 03:25:28;;;;;;;;;;;15.50;99.90;;;;;;5038663;28;20330;-82
2022/12/27 03:33:35;;;;;;;;;;;15.50;99.90;;;;;;5038233;28;19909;-82
2022/12/27 03:39:20;;;;;;;;;;;15.50;99.90;;;;;;5038164;28;19909;-81
2022/12/27 03:44:38;;;;;;;;;;;15.50;99.90;;;;;;5038330;28;19909;-81
2022/12/27 03:47:28;;;;;;;;;;;15.50;99.90;;;;;;5038227;28;19909;-81
2022/12/27 03:50:03;;;;;;;;;;;15.50;99.90;;;;;;5037769;28;19909;-82
2022/12/27 03:52:40;;;;;;;;;;;15.50;99.90;;;;;;5038195;28;20308;-82
2022/12/27 03:55:07;;;;;;;;;;;15.50;99.90;;;;;;5038342;28;19917;-82
2022/12/27 03:57:33;;;;;;;;;;;15.50;99.90;;;;;;5038025;28;20293;-83
2022/12/27 03:59:59;;;;;;;;;;;15.40;99.90;;;;;;5038096;28;20224;-82
2022/12/27 04:02:25;;;;;;;;;;;15.50;99.90;;;;;;5037510;28;19920;-82
2022/12/27 04:04:51;;;;;;;;;;;15.50;99.90;;;;;;5037164;28;19917;-83
2022/12/27 04:07:17;;;;;;;;;;;15.50;99.90;;;;;;5037655;28;19920;-86
2022/12/27 04:34:43;;;;;;;;;;;15.40;99.90;;;;;;5036656;28;20301;-83
2022/12/27 04:37:18;;;;;;;;;;;15.40;99.90;;;;;;5037625;28;20227;-82
2022/12/27 04:56:26;;;;;;;;;;;15.40;99.90;;;;;;5036874;28;20059;-82
2022/12/27 05:04:20;;;;;;;;;;;15.40;99.90;;;;;;5036804;28;19944;-82
2022/12/27 05:06:46;;;;;;;;;;;15.40;99.90;;;;;;5037022;28;19916;-81
2022/12/27 05:14:41;;;;;;;;;;;15.40;99.90;;;;;;5036606;28;19921;-81
2022/12/27 05:17:07;;;;;;;;;;;15.40;99.90;;;;;;5036895;28;20273;-81
2022/12/27 05:19:32;;;;;;;;;;;15.40;99.90;;;;;;5047982;28;20003;-81
2022/12/27 05:27:27;;;;;;;;;;;15.30;99.90;;;;;;5036598;28;19912;-82
2022/12/27 05:29:53;;;;;;;;;;;15.30;99.90;;;;;;5052315;28;20204;-82
2022/12/27 05:32:18;;;;;;;;;;;15.30;99.90;;;;;;5036415;28;19913;-82
2022/12/27 05:34:44;;;;;;;;;;;15.30;99.90;;;;;;5034938;28;20239;-82
2022/12/27 05:37:10;;;;;;;;;;;15.30;99.90;;;;;;5036533;28;19913;-83
2022/12/27 05:39:36;;;;;;;;;;;15.30;99.90;;;;;;5036202;28;20315;-82
2022/12/27 05:42:02;;;;;;;;;;;15.30;99.90;;;;;;5036411;28;19970;-83
2022/12/27 05:44:27;;;;;;;;;;;15.30;99.90;;;;;;5036181;28;19913;-84
2022/12/27 05:46:53;;;;;;;;;;;15.30;99.90;;;;;;5036015;28;19920;-84
2022/12/27 05:49:20;;;;;;;;;;;15.30;99.90;;;;;;5036151;28;19916;-82
2022/12/27 05:51:46;;;;;;;;;;;15.30;99.90;;;;;;5036052;28;19913;-83
2022/12/27 05:54:12;;;;;;;;;;;15.30;99.90;;;;;;5036120;28;19919;-83
2022/12/27 05:56:38;;;;;;;;;;;15.30;99.90;;;;;;5036001;28;19918;-83
2022/12/27 05:59:04;;;;;;;;;;;15.30;99.90;;;;;;5036041;28;20326;-83
2022/12/27 06:01:30;;;;;;;;;;;15.30;99.90;;;;;;5035910;28;19909;-82
2022/12/27 06:03:56;;;;;;;;;;;15.30;99.90;;;;;;5035415;28;19921;-83
2022/12/27 06:06:21;;;;;;;;;;;15.20;99.90;;;;;;5036003;28;19924;-83
2022/12/27 06:08:47;;;;;;;;;;;15.30;99.90;;;;;;5035735;28;19924;-82
2022/12/27 06:11:15;;;;;;;;;;;15.30;99.90;;;;;;5036127;28;19928;-83
2022/12/27 06:13:41;;;;;;;;;;;15.20;99.90;;;;;;5035687;28;19996;-82
2022/12/27 06:16:09;;;;;;;;;;;15.20;99.90;;;;;;5035936;28;20004;-82
2022/12/27 06:18:35;;;;;;;;;;;15.20;99.90;;;;;;5034739;28;20317;-81
2022/12/27 06:21:03;;;;;;;;;;;15.20;99.90;;;;;;5036111;28;19962;-81
2022/12/27 06:23:28;;;;;;;;;;;15.20;99.90;;;;;;5035593;28;20304;-85
2022/12/27 06:25:54;;;;;;;;;;;15.20;99.90;;;;;;5036011;28;19920;-80
2022/12/27 06:28:20;;;;;;;;;;;15.20;99.90;;;;;;5035919;28;19932;-81
2022/12/27 06:30:46;;;;;;;;;;;15.20;99.90;;;;;;5035893;28;19917;-82
2022/12/27 06:33:12;;;;;;;;;;;15.20;99.90;;;;;;5035363;28;19940;-82
2022/12/27 06:35:38;;;;;;;;;;;15.20;99.90;;;;;;5035798;28;20313;-82
2022/12/27 06:38:03;;;;;;;;;;;15.20;99.90;;;;;;5051711;28;19916;-81
2022/12/27 06:40:29;;;;;;;;;;;15.20;99.90;;;;;;5036298;28;19948;-81
2022/12/27 06:42:55;;;;;;;;;;;15.20;99.90;;;;;;5035305;28;20204;-80
2022/12/27 06:45:21;;;;;;;;;;;15.20;99.90;;;;;;5036211;28;19909;-82
2022/12/27 06:47:46;;;;;;;;;;;15.20;99.90;;;;;;5035274;28;19909;-81
2022/12/27 06:50:12;;;;;;;;;;;15.20;99.90;;;;;;5051372;28;20308;-82
2022/12/27 06:52:38;;;;;;;;;;;15.20;99.90;;;;;;5051317;28;19943;-81
2022/12/27 06:55:04;;;;;;;;;;;15.20;99.90;;;;;;5035676;28;19917;-82
2022/12/27 06:57:30;;;;;;;;;;;15.20;99.90;;;;;;5035991;28;19975;-81
2022/12/27 06:59:56;;;;;;;;;;;15.20;99.90;;;;;;5051365;28;19921;-82
2022/12/27 07:02:21;;;;;;;;;;;15.20;99.90;;;;;;5035424;28;19924;-81
2022/12/27 07:04:47;;;;;;;;;;;15.20;99.90;;;;;;5050268;28;19920;-81
2022/12/27 07:07:13;;;;;;;;;;;15.20;99.90;;;;;;5035530;28;19936;-81
2022/12/27 07:09:39;;;;;;;;;;;15.20;99.90;;;;;;5035074;28;20335;-82
2022/12/27 07:12:05;;;;;;;;;;;15.20;99.90;;;;;;5035355;28;19932;-81
2022/12/27 07:14:31;;;;;;;;;;;15.20;99.90;;;;;;5038859;28;20291;-82
2022/12/27 07:16:56;;;;;;;;;;;15.20;99.90;;;;;;5038539;28;20316;-81
2022/12/27 07:19:22;;;;;;;;;;;15.20;99.90;;;;;;5050061;28;20007;-79
2022/12/27 07:21:48;;;;;;;;;;;15.20;99.90;;;;;;5058688;28;20231;-82
2022/12/27 07:24:14;;;;;;;;;;;15.20;99.90;;;;;;5057621;28;19924;-82
2022/12/27 07:26:40;;;;;;;;;;;15.20;99.90;;;;;;5058469;28;20022;-83
2022/12/27 07:29:06;;;;;;;;;;;15.20;99.90;;;;;;5056205;28;19912;-82
2022/12/27 07:31:32;;;;;;;;;;;15.20;99.90;;;;;;5058802;28;19948;-82
2022/12/27 07:33:59;;;;;;;;;;;15.10;99.90;;;;;;5057357;28;19909;-83
2022/12/27 07:36:27;;;;;;;;;;;15.20;99.90;;;;;;5038704;28;20205;-81
2022/12/27 07:38:54;;;;;;;;;;;15.20;99.90;;;;;;5037975;28;19913;-82
2022/12/27 07:41:20;;;;;;;;;;;15.20;99.90;;;;;;5070523;28;19913;-77
2022/12/27 07:43:46;;;;;;;;;;;15.20;99.90;;;;;;5038046;28;19913;-79
2022/12/27 07:46:16;;;;;;;;;;;15.10;99.90;;;;;;5037735;28;19917;-86
2022/12/27 07:48:41;;;;;;;;;;;15.10;99.90;;;;;;5037335;28;19917;-81
2022/12/27 07:51:08;;;;;;;;;;;15.20;99.90;;;;;;5038114;28;19913;-84
2022/12/27 07:53:33;;;;;;;;;;;15.20;99.90;;;;;;5053889;28;19977;-79
2022/12/27 07:56:03;;;;;;;;;;;15.10;99.90;;;;;;5072607;28;20379;-82
2022/12/27 07:58:29;;;;;;;;;;;15.10;99.90;;;;;;5048806;28;19908;-80
2022/12/27 08:00:55;;;;;;;;;;;15.10;99.90;;;;;;5057645;28;20051;-79
2022/12/27 08:03:21;;;;;;;;;;;15.10;99.90;;;;;;5059456;28;19960;-79
2022/12/27 08:05:48;;;;;;;;;;;15.10;99.90;;;;;;5058540;28;19920;-80
2022/12/27 08:08:18;;;;;;;;;;;15.10;99.90;;;;;;5057916;28;19912;-79
2022/12/27 08:10:44;;;;;;;;;;;15.10;99.90;;;;;;5066466;28;19915;-79
2022/12/27 08:13:10;;;;;;;;;;;15.10;99.90;;;;;;5058054;28;19908;-80
2022/12/27 08:15:36;;;;;;;;;;;15.10;99.90;;;;;;5053121;28;19917;-81
2022/12/27 08:18:02;;;;;;;;;;;15.10;99.90;;;;;;5056992;28;19913;-79
2022/12/27 08:20:28;;;;;;;;;;;15.10;99.90;;;;;;5061512;28;19969;-80
2022/12/27 08:22:54;;;;;;;;;;;15.10;99.90;;;;;;5058824;28;19916;-80
2022/12/27 08:25:20;;;;;;;;;;;15.10;99.90;;;;;;5056593;28;19913;-80
2022/12/27 08:27:46;;;;;;;;;;;15.10;99.90;;;;;;5057987;28;19999;-79
2022/12/27 08:30:12;;;;;;;;;;;15.10;99.90;;;;;;5057891;28;20015;-79
2022/12/27 08:32:38;;;;;;;;;;;15.10;99.90;;;;;;5057861;28;19975;-80
2022/12/27 08:35:04;;;;;;;;;;;15.10;99.90;;;;;;5057570;28;19916;-79
2022/12/27 08:37:30;;;;;;;;;;;15.10;99.90;;;;;;5057936;28;19913;-79
2022/12/27 08:39:55;;;;;;;;;;;15.10;99.90;;;;;;5057566;28;19966;-79
2022/12/27 08:42:21;;;;;;;;;;;15.10;99.90;;;;;;5057767;28;20272;-80
2022/12/27 08:44:47;;;;;;;;;;;15.10;99.90;;;;;;5056527;28;19912;-79
2022/12/27 08:47:13;;;;;;;;;;;15.10;99.90;;;;;;5057711;28;19917;-79
2022/12/27 08:49:38;;;;;;;;;;;15.10;99.90;;;;;;5056557;28;19908;-79
2022/12/27 08:52:04;;;;;;;;;;;15.10;99.90;;;;;;5057365;28;19932;-80
2022/12/27 08:54:30;;;;;;;;;;;15.10;99.90;;;;;;5057305;28;20303;-80
2022/12/27 08:56:56;;;;;;;;;;;15.20;99.90;;;;;;5057435;28;19916;-81
2022/12/27 08:59:22;;;;;;;;;;;15.20;99.90;;;;;;5057316;28;20007;-79
2022/12/27 09:01:47;;;;;;;;;;;15.20;99.90;;;;;;5057362;28;19912;-80
2022/12/27 09:04:13;;;;;;;;;;;15.20;99.90;;;;;;5057403;28;19916;-79
2022/12/27 09:06:39;;;;;;;;;;;15.20;99.90;;;;;;5056413;28;19948;-79
2022/12/27 09:09:05;;;;;;;;;;;15.20;99.90;;;;;;5056970;28;20692;-79
2022/12/27 09:11:32;;;;;;;;;;;15.20;99.90;;;;;;5057259;28;19919;-79
2022/12/27 09:13:59;;;;;;;;;;;15.20;99.90;;;;;;5054900;28;19999;-79
2022/12/27 09:16:28;;;;;;;;;;;15.20;99.90;;;;;;5040303;28;19913;-76
2022/12/27 09:18:55;;;;;;;;;;;15.20;99.90;;;;;;5038684;28;20008;-78
2022/12/27 09:21:22;;;;;;;;;;;15.20;99.90;;;;;;5057145;28;19908;-77
2022/12/27 09:23:48;;;;;;;;;;;15.20;99.90;;;;;;5056840;28;19909;-76
2022/12/27 09:26:19;;;;;;;;;;;15.20;99.90;;;;;;5067387;28;20374;-78
2022/12/27 09:28:45;;;;;;;;;;;15.20;99.90;;;;;;5076992;28;19953;-77
2022/12/27 09:31:11;;;;;;;;;;;15.20;99.90;;;;;;5076945;28;20369;-78
2022/12/27 09:33:37;;;;;;;;;;;15.30;99.90;;;;;;5076951;28;19908;-77
2022/12/27 09:36:11;;;;;;;;;;;15.20;99.90;;;;;;5064990;28;20296;-77
2022/12/27 09:38:37;;;;;;;;;;;15.30;99.90;;;;;;5057017;28;20223;-77
2022/12/27 09:41:04;;;;;;;;;;;15.30;99.90;;;;;;5056822;28;19916;-77
2022/12/27 09:43:49;;;;;;;;;;;15.30;99.90;;;;;;5056751;28;19908;-77
2022/12/27 09:46:19;;;;;;;;;;;15.30;99.90;;;;;;5072591;28;19916;-77
2022/12/27 09:48:46;;;;;;;;;;;15.30;99.90;;;;;;5088827;28;19909;-77
2022/12/27 09:51:14;;;;;;;;;;;15.30;99.90;;;;;;5056643;28;19912;-77
2022/12/27 09:53:49;;;;;;;;;;;15.30;99.90;;;;;;5056710;28;19991;-78
2022/12/27 09:56:19;;;;;;;;;;;15.30;99.90;;;;;;5056745;28;19963;-77
2022/12/27 09:58:49;;;;;;;;;;;15.30;99.90;;;;;;5056684;28;19916;-78
2022/12/27 10:01:20;;;;;;;;;;;15.30;99.90;;;;;;5056500;28;19908;-78
2022/12/27 10:03:46;;;;;;;;;;;15.30;99.90;;;;;;5056626;28;19932;-78
2022/12/27 10:06:18;;;;;;;;;;;15.30;99.90;;;;;;5056357;28;20062;-78
2022/12/27 10:08:49;;;;;;;;;;;15.30;99.90;;;;;;5056191;28;19915;-79
2022/12/27 10:11:35;;;;;;;;;;;15.30;99.90;;;;;;5056393;28;19916;-79
2022/12/27 10:14:10;;;;;;;;;;;15.40;99.90;;;;;;5056374;28;19963;-79
2022/12/27 10:16:47;;;;;;;;;;;15.40;99.90;;;;;;5056184;28;19917;-79
2022/12/27 10:19:32;;;;;;;;;;;15.40;99.90;;;;;;5045353;28;19967;-79
2022/12/27 10:22:16;;;;;;;;;;;15.40;99.90;;;;;;5036392;28;19959;-79
2022/12/27 10:24:47;;;;;;;;;;;15.30;99.90;;;;;;5046706;28;19912;-79
2022/12/27 10:27:14;;;;;;;;;;;15.40;99.90;;;;;;5055811;28;19947;-78
2022/12/27 10:29:41;;;;;;;;;;;15.30;99.90;;;;;;5056257;28;19948;-79
2022/12/27 10:32:09;;;;;;;;;;;15.30;99.90;;;;;;5055887;28;19909;-79
2022/12/27 10:34:34;;;;;;;;;;;15.40;99.90;;;;;;5055838;28;19954;-78
2022/12/27 10:37:00;;;;;;;;;;;15.40;99.90;;;;;;5055748;28;19916;-79
2022/12/27 10:39:29;;;;;;;;;;;15.40;99.90;;;;;;5055984;28;20330;-79
2022/12/27 10:42:04;;;;;;;;;;;15.40;99.90;;;;;;5055787;28;19913;-79
2022/12/27 10:44:30;;;;;;;;;;;15.40;99.90;;;;;;5055993;28;20323;-79
2022/12/27 10:46:56;;;;;;;;;;;15.40;99.90;;;;;;5055438;28;19913;-79
2022/12/27 10:49:23;;;;;;;;;;;15.40;99.90;;;;;;5057449;28;20223;-80
2022/12/27 10:51:54;;;;;;;;;;;15.40;99.90;;;;;;5059284;28;19916;-81
2022/12/27 10:54:22;;;;;;;;;;;15.40;99.90;;;;;;5056394;28;20315;-81
2022/12/27 10:56:47;;;;;;;;;;;15.40;99.90;;;;;;5091624;28;20312;-80
2022/12/27 10:59:21;;;;;;;;;;;15.40;99.90;;;;;;5059176;28;20046;-80
2022/12/27 11:01:49;;;;;;;;;;;15.40;99.90;;;;;;5058375;28;20336;-81
2022/12/27 11:04:19;;;;;;;;;;;15.40;99.90;;;;;;5056588;28;19943;-81
2022/12/27 11:06:46;;;;;;;;;;;15.40;99.90;;;;;;5057909;28;19977;-81
2022/12/27 11:09:24;;;;;;;;;;;15.40;99.90;;;;;;5057872;28;19951;-81
2022/12/27 11:11:50;;;;;;;;;;;15.40;99.90;;;;;;5057914;28;19952;-82
2022/12/27 11:14:18;;;;;;;;;;;15.50;99.90;;;;;;5058273;28;19956;-81
2022/12/27 11:16:44;;;;;;;;;;;15.40;99.90;;;;;;5058366;28;20450;-80
2022/12/27 11:19:22;;;;;;;;;;;15.40;99.90;;;;;;5048157;28;19924;-81
2022/12/27 11:21:48;;;;;;;;;;;15.50;99.90;;;;;;5048710;28;20265;-81
2022/12/27 11:24:15;;;;;;;;;;;15.50;99.90;;;;;;5058918;28;20031;-81
2022/12/27 11:26:48;;;;;;;;;;;15.50;99.90;;;;;;5058840;28;19912;-81
2022/12/27 11:29:16;;;;;;;;;;;15.50;99.90;;;;;;5058680;28;20223;-81
2022/12/27 11:31:46;;;;;;;;;;;15.50;99.90;;;;;;5057598;28;19913;-82
2022/12/27 11:34:12;;;;;;;;;;;15.50;99.90;;;;;;5058131;28;19909;-79
2022/12/27 11:36:40;;;;;;;;;;;15.50;99.90;;;;;;5057384;28;19991;-79
2022/12/27 11:39:06;;;;;;;;;;;15.50;99.90;;;;;;5058512;28;19909;-78
2022/12/27 11:41:41;;;;;;;;;;;15.40;99.90;;;;;;5058783;28;20334;-77
2022/12/27 11:44:07;;;;;;;;;;;15.40;99.90;;;;;;5090917;28;19913;-80
2022/12/27 11:46:39;;;;;;;;;;;15.50;99.90;;;;;;5058198;28;20266;-81
2022/12/27 11:49:08;;;;;;;;;;;15.50;99.90;;;;;;5057735;28;19908;-77
2022/12/27 11:51:43;;;;;;;;;;;15.40;99.90;;;;;;5058247;28;19959;-79
2022/12/27 11:54:09;;;;;;;;;;;15.50;99.90;;;;;;5058115;28;19913;-77
2022/12/27 11:56:36;;;;;;;;;;;15.50;99.90;;;;;;5057115;28;19913;-80
2022/12/27 11:59:21;;;;;;;;;;;15.50;99.90;;;;;;5057635;28;19947;-80
2022/12/27 12:02:16;;;;;;;;;;;15.40;99.90;;;;;;5058350;28;19913;-80
2022/12/27 12:05:00;;;;;;;;;;;15.50;99.90;;;;;;5012924;28;19917;-78
2022/12/27 12:07:35;;;;;;;;;;;15.50;99.90;;;;;;5051816;28;20278;-78
2022/12/27 12:10:19;;;;;;;;;;;15.40;99.90;;;;;;5057908;28;19948;-78
2022/12/27 12:13:04;;;;;;;;;;;15.50;99.90;;;;;;5058494;28;20015;-78
2022/12/27 12:15:41;;;;;;;;;;;15.40;99.90;;;;;;5058102;28;19919;-78
2022/12/27 12:18:12;;;;;;;;;;;15.50;99.90;;;;;;5056751;28;20065;-78
2022/12/27 12:20:47;;;;;;;;;;;15.40;99.90;;;;;;5038258;28;19909;-79
2022/12/27 12:23:32;;;;;;;;;;;15.50;99.90;;;;;;5041155;28;20318;-79
2022/12/27 12:26:17;;;;;;;;;;;15.40;99.90;;;;;;5058267;28;19962;-79
2022/12/27 12:28:46;;;;;;;;;;;15.40;99.90;;;;;;5057577;28;19931;-79
2022/12/27 12:31:14;;;;;;;;;;;15.40;99.90;;;;;;5077479;28;20307;-79
2022/12/27 12:33:59;;;;;;;;;;;15.40;99.90;;;;;;5057403;28;20085;-79
2022/12/27 12:36:37;;;;;;;;;;;15.40;99.90;;;;;;5057653;28;19912;-79
2022/12/27 12:39:06;;;;;;;;;;;15.40;99.90;;;;;;5058374;28;19982;-78
2022/12/27 12:41:34;;;;;;;;;;;15.40;99.90;;;;;;5077718;28;20014;-79
2022/12/27 12:44:30;;;;;;;;;;;15.40;99.90;;;;;;5077353;28;19908;-87
2022/12/27 12:47:15;;;;;;;;;;;15.40;99.90;;;;;;5076691;28;20234;-79
2022/12/27 12:49:47;;;;;;;;;;;15.40;99.90;;;;;;5064628;28;20347;-79
2022/12/27 12:52:28;;;;;;;;;;;15.40;99.90;;;;;;5057268;28;19916;-79
2022/12/27 12:55:17;;;;;;;;;;;15.40;99.90;;;;;;5056868;28;19920;-80
2022/12/27 12:57:42;;;;;;;;;;;15.40;99.90;;;;;;5048176;28;19982;-79
2022/12/27 13:00:15;;;;;;;;;;;15.40;99.90;;;;;;5051582;28;20394;-76
2022/12/27 13:02:48;;;;;;;;;;;15.40;99.90;;;;;;5058547;28;20438;-77
2022/12/27 13:05:14;;;;;;;;;;;15.40;99.90;;;;;;5060094;28;20013;-79
2022/12/27 13:07:49;;;;;;;;;;;15.40;99.90;;;;;;5056863;28;20254;-79
2022/12/27 13:10:33;;;;;;;;;;;15.30;99.90;;;;;;5056115;28;19924;-77
2022/12/27 13:13:05;;;;;;;;;;;15.40;99.90;;;;;;5055916;28;19909;-79
2022/12/27 13:16:03;;;;;;;;;;;15.40;99.90;;;;;;5054890;28;19969;-77
2022/12/27 13:18:41;;;;;;;;;;;15.40;99.90;;;;;;5033078;28;20309;-78
2022/12/27 13:21:06;;;;;;;;;;;15.30;99.90;;;;;;5055696;28;20468;-78
2022/12/27 13:23:32;;;;;;;;;;;15.40;99.90;;;;;;5056163;28;20042;-78
2022/12/27 13:26:17;;;;;;;;;;;15.30;99.90;;;;;;5056302;28;19908;-77
2022/12/27 13:28:57;;;;;;;;;;;15.30;99.90;;;;;;5056154;28;19951;-78
2022/12/27 13:31:29;;;;;;;;;;;15.30;99.90;;;;;;5055836;28;20026;-79
2022/12/27 13:33:58;;;;;;;;;;;15.30;99.90;;;;;;5056060;28;20322;-78
2022/12/27 13:36:32;;;;;;;;;;;15.30;99.90;;;;;;5056511;28;20257;-78
2022/12/27 13:39:16;;;;;;;;;;;15.30;99.90;;;;;;5056696;28;19908;-78
2022/12/27 13:41:55;;;;;;;;;;;15.30;99.90;;;;;;5056805;28;19960;-77
2022/12/27 13:44:27;;;;;;;;;;;15.30;99.90;;;;;;5056505;28;20316;-78
2022/12/27 13:47:13;;;;;;;;;;;15.30;99.90;;;;;;5056490;28;19944;-78
2022/12/27 13:49:39;;;;;;;;;;;15.30;99.90;;;;;;5088588;28;19915;-79
2022/12/27 13:52:23;;;;;;;;;;;15.20;99.90;;;;;;5056617;28;19909;-78
2022/12/27 13:54:49;;;;;;;;;;;15.30;99.90;;;;;;5056314;28;19958;-78
2022/12/27 13:57:41;;;;;;;;;;;15.30;99.90;;;;;;5056505;28;19909;-78
2022/12/27 14:00:10;;;;;;;;;;;15.20;99.90;;;;;;5056388;28;20330;-78
2022/12/27 14:02:36;;;;;;;;;;;15.20;99.90;;;;;;5056406;28;19963;-78
2022/12/27 14:05:34;;;;;;;;;;;15.20;99.90;;;;;;5056273;28;19916;-77
2022/12/27 14:08:12;;;;;;;;;;;15.20;99.90;;;;;;5056304;28;19908;-77
2022/12/27 14:10:51;;;;;;;;;;;15.20;99.90;;;;;;5089259;28;20255;-77
2022/12/27 14:13:20;;;;;;;;;;;15.20;99.90;;;;;;5056075;28;19919;-78
2022/12/27 14:15:49;;;;;;;;;;;15.20;99.90;;;;;;5056436;28;20373;-78
2022/12/27 14:18:18;;;;;;;;;;;15.20;99.90;;;;;;5053104;28;19913;-77
2022/12/27 14:20:52;;;;;;;;;;;15.20;99.90;;;;;;5036368;28;19916;-78
2022/12/27 14:23:17;;;;;;;;;;;15.20;99.90;;;;;;5038031;28;19909;-77
2022/12/27 14:26:02;;;;;;;;;;;15.10;99.90;;;;;;5040456;28;20350;-78
2022/12/27 14:28:47;;;;;;;;;;;15.20;99.90;;;;;;5040352;28;19913;-77
2022/12/27 14:31:16;;;;;;;;;;;15.20;99.90;;;;;;5040214;28;20011;-78
2022/12/27 14:33:45;;;;;;;;;;;15.20;99.90;;;;;;5040078;28;19919;-77
2022/12/27 14:36:29;;;;;;;;;;;15.10;99.90;;;;;;5040066;28;20053;-78
2022/12/27 14:39:18;;;;;;;;;;;15.20;99.90;;;;;;5040173;28;19909;-77
2022/12/27 14:42:16;;;;;;;;;;;15.10;99.90;;;;;;5040295;28;19909;-77
2022/12/27 14:45:05;;;;;;;;;;;15.10;99.90;;;;;;5038967;28;20367;-77
2022/12/27 14:47:50;;;;;;;;;;;15.10;99.90;;;;;;5038645;28;19934;-77
2022/12/27 14:50:24;;;;;;;;;;;15.10;99.90;;;;;;5039742;28;19909;-77
2022/12/27 14:53:09;;;;;;;;;;;15.10;99.90;;;;;;5039905;28;19909;-77
2022/12/27 14:56:11;;;;;;;;;;;15.10;99.90;;;;;;5039774;28;19995;-77
2022/12/27 14:58:47;;;;;;;;;;;15.10;99.90;;;;;;5037725;28;19963;-77
2022/12/27 15:01:15;;;;;;;;;;;15.10;99.90;;;;;;5039318;28;20381;-78
2022/12/27 15:03:53;;;;;;;;;;;15.10;99.90;;;;;;5039439;28;19909;-77
2022/12/27 15:06:21;;;;;;;;;;;15.10;99.90;;;;;;5039473;28;19916;-77
2022/12/27 15:08:53;;;;;;;;;;;15.10;99.90;;;;;;5039631;28;19913;-78
2022/12/27 15:11:38;;;;;;;;;;;15.10;99.90;;;;;;5039513;28;19909;-77
2022/12/27 15:14:14;;;;;;;;;;;15.00;99.90;;;;;;5055117;28;19915;-77
2022/12/27 15:16:58;;;;;;;;;;;15.10;99.90;;;;;;5039438;28;19920;-78
2022/12/27 15:19:47;;;;;;;;;;;15.00;99.90;;;;;;5038788;28;19923;-78
2022/12/27 15:22:24;;;;;;;;;;;15.00;99.90;;;;;;5039360;28;19960;-77
2022/12/27 15:25:01;;;;;;;;;;;15.00;99.90;;;;;;5039320;28;20327;-77
2022/12/27 15:27:30;;;;;;;;;;;15.00;99.90;;;;;;5039205;28;19916;-77
2022/12/27 15:30:05;;;;;;;;;;;15.00;99.90;;;;;;5039003;28;19996;-77
2022/12/27 15:32:40;;;;;;;;;;;15.00;99.90;;;;;;5038834;28;19909;-77
2022/12/27 15:35:25;;;;;;;;;;;15.00;99.90;;;;;;5038252;28;20291;-78
2022/12/27 15:37:51;;;;;;;;;;;15.00;99.90;;;;;;5039093;28;19915;-77
2022/12/27 15:40:49;;;;;;;;;;;15.00;99.90;;;;;;5038800;28;20215;-78
2022/12/27 15:43:21;;;;;;;;;;;15.00;99.90;;;;;;5027101;28;19909;-79
2022/12/27 15:46:05;;;;;;;;;;;14.90;99.90;;;;;;5038959;28;19916;-77
2022/12/27 15:48:33;;;;;;;;;;;15.00;99.90;;;;;;5038418;28;20198;-77
2022/12/27 15:51:02;;;;;;;;;;;14.90;99.90;;;;;;5037751;28;19909;-77
2022/12/27 15:53:37;;;;;;;;;;;15.00;99.90;;;;;;5038481;28;19958;-77
2022/12/27 15:56:09;;;;;;;;;;;15.00;99.90;;;;;;5038618;28;19920;-77
2022/12/27 15:58:35;;;;;;;;;;;15.00;99.90;;;;;;5038616;28;20298;-77
2022/12/27 16:01:16;;;;;;;;;;;14.90;99.90;;;;;;5038711;28;19913;-77
2022/12/27 16:03:44;;;;;;;;;;;14.90;99.90;;;;;;5038354;28;19920;-78
2022/12/27 16:06:29;;;;;;;;;;;14.90;99.90;;;;;;5038553;28;19978;-77
2022/12/27 16:09:13;;;;;;;;;;;14.90;99.90;;;;;;5038483;28;19967;-77
2022/12/27 16:11:59;;;;;;;;;;;14.90;99.90;;;;;;5038338;28;19931;-77
2022/12/27 16:14:30;;;;;;;;;;;14.90;99.90;;;;;;5038332;28;19909;-77
2022/12/27 16:17:02;;;;;;;;;;;14.90;99.90;;;;;;5038122;28;20299;-78
2022/12/27 16:19:40;;;;;;;;;;;14.90;99.90;;;;;;5050134;28;19966;-77